sensor_id;sensor_type;location;lat;lon;timestamp;temperature;humidity
20045;DHT22;10183;47.808;9.476;2023-06-26T00:00:57;15.10;99.90
20045;DHT22;10183;47.808;9.476;2023-06-26T00:03:23;15.20;99.90
20045;DHT22;10183;47.808;9.476;2023-06-26T00:05:49;15.20;99.90
20045;DHT22;10183;47.808;9.476;2023-06-26T00:08:16;15.20;99.90
20045;DHT22;10183;47.808;9.476;2023-06-26T00:10:42;15.10;99.90
20045;DHT22;10183;47.808;9.476;2023-06-26T00:13:09;15.30;99.90
20045;DHT22;10183;47.808;9.476;2023-06-26T00:15:38;15.30;99.90
20045;DHT22;10183;47.808;9.476;2023-06-26T00:18:05;15.40;99.90
20045;DHT22;10183;47.808;9.476;2023-06-26T00:20:31;15.50;99.90
20045;DHT22;10183;47.808;9.476;2023-06-26T00:23:00;15.50;99.90
20045;DHT22;10183;47.808;9.476;2023-06-26T00:25:26;15.40;99.90
20045;DHT22;10183;47.808;9.476;2023-06-26T00:27:52;15.30;99.90
20045;DHT22;10183;47.808;9.476;2023-06-26T00:30:18;15.30;99.90
20045;DHT22;10183;47.808;9.476;2023-06-26T00:32:44;15.20;99.90
20045;DHT22;10183;47.808;9.476;2023-06-26T00:35:10;15.40;99.90
20045;DHT22;10183;47.808;9.476;2023-06-26T00:37:36;15.10;99.90
20045;DHT22;10183;47.808;9.476;2023-06-26T00:40:03;15.00;99.90
20045;DHT22;10183;47.808;9.476;2023-06-26T00:42:31;15.10;99.90
20045;DHT22;10183;47.808;9.476;2023-06-26T00:44:57;15.30;99.90
20045;DHT22;10183;47.808;9.476;2023-06-26T00:47:24;15.30;99.90
20045;DHT22;10183;47.808;9.476;2023-06-26T00:49:51;15.10;99.90
20045;DHT22;10183;47.808;9.476;2023-06-26T00:52:18;15.20;99.90
20045;DHT22;10183;47.808;9.476;2023-06-26T00:54:44;15.10;99.90
20045;DHT22;10183;47.808;9.476;2023-06-26T00:57:10;15.00;99.90
20045;DHT22;10183;47.808;9.476;2023-06-26T00:59:36;15.00;99.90
20045;DHT22;10183;47.808;9.476;2023-06-26T01:02:04;15.00;99.90
20045;DHT22;10183;47.808;9.476;2023-06-26T01:04:31;15.10;99.90
20045;DHT22;10183;47.808;9.476;2023-06-26T01:06:59;15.00;99.90
20045;DHT22;10183;47.808;9.476;2023-06-26T01:09:27;14.90;99.90
20045;DHT22;10183;47.808;9.476;2023-06-26T01:11:53;14.70;99.90
20045;DHT22;10183;47.808;9.476;2023-06-26T01:14:19;14.50;99.90
20045;DHT22;10183;47.808;9.476;2023-06-26T01:16:46;14.40;99.90
20045;DHT22;10183;47.808;9.476;2023-06-26T01:19:19;14.30;99.90
20045;DHT22;10183;47.808;9.476;2023-06-26T01:21:56;14.20;99.90
20045;DHT22;10183;47.808;9.476;2023-06-26T01:24:25;14.00;99.90
20045;DHT22;10183;47.808;9.476;2023-06-26T01:26:59;14.00;99.90
20045;DHT22;10183;47.808;9.476;2023-06-26T01:29:29;13.90;99.90
20045;DHT22;10183;47.808;9.476;2023-06-26T01:31:56;13.80;99.90
20045;DHT22;10183;47.808;9.476;2023-06-26T01:34:23;13.80;99.90
20045;DHT22;10183;47.808;9.476;2023-06-26T01:36:49;13.80;99.90
20045;DHT22;10183;47.808;9.476;2023-06-26T01:39:18;13.90;99.90
20045;DHT22;10183;47.808;9.476;2023-06-26T01:41:45;13.80;99.90
20045;DHT22;10183;47.808;9.476;2023-06-26T01:47:00;13.90;99.90
20045;DHT22;10183;47.808;9.476;2023-06-26T01:55:01;14.10;99.90
20045;DHT22;10183;47.808;9.476;2023-06-26T01:57:30;14.00;99.90
20045;DHT22;10183;47.808;9.476;2023-06-26T01:59:57;14.00;99.90
20045;DHT22;10183;47.808;9.476;2023-06-26T02:02:24;13.90;99.90
20045;DHT22;10183;47.808;9.476;2023-06-26T02:04:51;13.90;99.90
20045;DHT22;10183;47.808;9.476;2023-06-26T02:07:17;14.10;99.90
20045;DHT22;10183;47.808;9.476;2023-06-26T02:09:43;14.10;99.90
20045;DHT22;10183;47.808;9.476;2023-06-26T02:12:10;14.10;99.90
20045;DHT22;10183;47.808;9.476;2023-06-26T02:14:36;14.00;99.90
20045;DHT22;10183;47.808;9.476;2023-06-26T02:17:02;14.00;99.90
20045;DHT22;10183;47.808;9.476;2023-06-26T02:19:28;14.10;99.90
20045;DHT22;10183;47.808;9.476;2023-06-26T02:21:54;14.00;99.90
20045;DHT22;10183;47.808;9.476;2023-06-26T02:24:20;14.00;99.90
20045;DHT22;10183;47.808;9.476;2023-06-26T02:26:47;13.90;99.90
20045;DHT22;10183;47.808;9.476;2023-06-26T02:29:15;13.90;99.90
20045;DHT22;10183;47.808;9.476;2023-06-26T02:31:41;13.80;99.90
20045;DHT22;10183;47.808;9.476;2023-06-26T02:34:07;13.80;99.90
20045;DHT22;10183;47.808;9.476;2023-06-26T02:36:33;13.80;99.90
20045;DHT22;10183;47.808;9.476;2023-06-26T02:38:59;14.00;99.90
20045;DHT22;10183;47.808;9.476;2023-06-26T02:41:25;14.00;99.90
20045;DHT22;10183;47.808;9.476;2023-06-26T02:43:52;14.00;99.90
20045;DHT22;10183;47.808;9.476;2023-06-26T02:46:18;13.90;99.90
20045;DHT22;10183;47.808;9.476;2023-06-26T02:48:44;13.90;99.90
20045;DHT22;10183;47.808;9.476;2023-06-26T02:51:10;14.00;99.90
20045;DHT22;10183;47.808;9.476;2023-06-26T02:53:36;14.00;99.90
20045;DHT22;10183;47.808;9.476;2023-06-26T02:56:02;14.00;99.90
20045;DHT22;10183;47.808;9.476;2023-06-26T02:58:28;14.10;99.90
20045;DHT22;10183;47.808;9.476;2023-06-26T03:00:54;14.20;99.90
20045;DHT22;10183;47.808;9.476;2023-06-26T03:03:22;14.30;99.90
20045;DHT22;10183;47.808;9.476;2023-06-26T03:05:48;14.30;99.90
20045;DHT22;10183;47.808;9.476;2023-06-26T03:08:14;14.50;99.90
20045;DHT22;10183;47.808;9.476;2023-06-26T03:10:40;14.60;99.90
20045;DHT22;10183;47.808;9.476;2023-06-26T03:13:06;14.70;99.90
20045;DHT22;10183;47.808;9.476;2023-06-26T03:15:33;14.70;99.90
20045;DHT22;10183;47.808;9.476;2023-06-26T03:17:59;14.80;99.90
20045;DHT22;10183;47.808;9.476;2023-06-26T03:20:25;14.80;99.90
20045;DHT22;10183;47.808;9.476;2023-06-26T03:22:51;14.80;99.90
20045;DHT22;10183;47.808;9.476;2023-06-26T03:25:17;14.90;99.90
20045;DHT22;10183;47.808;9.476;2023-06-26T03:27:44;14.90;99.90
20045;DHT22;10183;47.808;9.476;2023-06-26T03:30:10;15.00;99.90
20045;DHT22;10183;47.808;9.476;2023-06-26T03:32:37;15.00;99.90
20045;DHT22;10183;47.808;9.476;2023-06-26T03:35:03;15.10;99.90
20045;DHT22;10183;47.808;9.476;2023-06-26T03:37:29;15.10;99.90
20045;DHT22;10183;47.808;9.476;2023-06-26T03:39:55;15.10;99.90
20045;DHT22;10183;47.808;9.476;2023-06-26T03:42:22;15.10;99.90
20045;DHT22;10183;47.808;9.476;2023-06-26T03:44:48;15.10;99.90
20045;DHT22;10183;47.808;9.476;2023-06-26T03:47:14;15.00;99.90
20045;DHT22;10183;47.808;9.476;2023-06-26T03:49:40;15.00;99.90
20045;DHT22;10183;47.808;9.476;2023-06-26T03:52:06;15.00;99.90
20045;DHT22;10183;47.808;9.476;2023-06-26T03:54:33;15.00;99.90
20045;DHT22;10183;47.808;9.476;2023-06-26T03:56:59;15.00;99.90
20045;DHT22;10183;47.808;9.476;2023-06-26T03:59:25;15.00;99.90
20045;DHT22;10183;47.808;9.476;2023-06-26T04:01:52;15.10;99.90
20045;DHT22;10183;47.808;9.476;2023-06-26T04:04:19;15.20;99.90
20045;DHT22;10183;47.808;9.476;2023-06-26T04:06:45;15.20;99.90
20045;DHT22;10183;47.808;9.476;2023-06-26T04:09:11;15.30;99.90
20045;DHT22;10183;47.808;9.476;2023-06-26T04:11:37;15.40;99.90
20045;DHT22;10183;47.808;9.476;2023-06-26T04:14:03;15.40;99.90
20045;DHT22;10183;47.808;9.476;2023-06-26T04:16:29;15.50;99.90
20045;DHT22;10183;47.808;9.476;2023-06-26T04:18:56;15.50;99.90
20045;DHT22;10183;47.808;9.476;2023-06-26T04:21:23;15.60;99.90
20045;DHT22;10183;47.808;9.476;2023-06-26T04:23:50;15.70;99.90
20045;DHT22;10183;47.808;9.476;2023-06-26T04:26:17;15.70;99.90
20045;DHT22;10183;47.808;9.476;2023-06-26T04:28:43;15.70;99.90
20045;DHT22;10183;47.808;9.476;2023-06-26T04:31:09;15.80;99.90
20045;DHT22;10183;47.808;9.476;2023-06-26T04:33:36;16.00;99.90
20045;DHT22;10183;47.808;9.476;2023-06-26T04:36:06;16.10;99.90
20045;DHT22;10183;47.808;9.476;2023-06-26T04:38:32;16.30;99.90
20045;DHT22;10183;47.808;9.476;2023-06-26T04:41:00;16.40;99.90
20045;DHT22;10183;47.808;9.476;2023-06-26T04:43:26;16.60;99.90
20045;DHT22;10183;47.808;9.476;2023-06-26T04:45:52;16.80;99.90
20045;DHT22;10183;47.808;9.476;2023-06-26T04:48:18;17.00;99.90
20045;DHT22;10183;47.808;9.476;2023-06-26T04:50:45;17.10;99.90
20045;DHT22;10183;47.808;9.476;2023-06-26T04:53:18;17.30;99.90
20045;DHT22;10183;47.808;9.476;2023-06-26T04:55:44;17.50;99.90
20045;DHT22;10183;47.808;9.476;2023-06-26T04:58:10;17.80;99.90
20045;DHT22;10183;47.808;9.476;2023-06-26T05:00:36;18.00;99.90
20045;DHT22;10183;47.808;9.476;2023-06-26T05:03:03;18.20;99.90
20045;DHT22;10183;47.808;9.476;2023-06-26T05:05:29;18.40;99.90
20045;DHT22;10183;47.808;9.476;2023-06-26T05:07:56;18.70;99.90
20045;DHT22;10183;47.808;9.476;2023-06-26T05:10:22;18.70;99.90
20045;DHT22;10183;47.808;9.476;2023-06-26T05:12:48;18.80;99.90
20045;DHT22;10183;47.808;9.476;2023-06-26T05:15:15;18.80;99.90
20045;DHT22;10183;47.808;9.476;2023-06-26T05:17:41;18.80;99.90
20045;DHT22;10183;47.808;9.476;2023-06-26T05:20:07;19.10;99.90
20045;DHT22;10183;47.808;9.476;2023-06-26T05:22:35;19.20;99.90
20045;DHT22;10183;47.808;9.476;2023-06-26T05:25:05;19.20;99.90
20045;DHT22;10183;47.808;9.476;2023-06-26T05:27:32;19.50;99.90
20045;DHT22;10183;47.808;9.476;2023-06-26T05:29:58;19.60;99.90
20045;DHT22;10183;47.808;9.476;2023-06-26T05:32:25;19.80;99.90
20045;DHT22;10183;47.808;9.476;2023-06-26T05:34:51;19.90;99.90
20045;DHT22;10183;47.808;9.476;2023-06-26T05:37:23;20.00;99.90
20045;DHT22;10183;47.808;9.476;2023-06-26T05:39:51;20.00;99.90
20045;DHT22;10183;47.808;9.476;2023-06-26T05:42:17;20.00;99.90
20045;DHT22;10183;47.808;9.476;2023-06-26T05:44:43;20.10;99.90
20045;DHT22;10183;47.808;9.476;2023-06-26T05:47:10;20.10;99.90
20045;DHT22;10183;47.808;9.476;2023-06-26T05:49:36;20.20;99.90
20045;DHT22;10183;47.808;9.476;2023-06-26T05:52:02;20.40;99.90
20045;DHT22;10183;47.808;9.476;2023-06-26T05:54:28;20.50;99.90
20045;DHT22;10183;47.808;9.476;2023-06-26T05:56:57;20.50;99.90
20045;DHT22;10183;47.808;9.476;2023-06-26T05:59:26;20.60;99.90
20045;DHT22;10183;47.808;9.476;2023-06-26T06:01:52;20.60;99.90
20045;DHT22;10183;47.808;9.476;2023-06-26T06:04:19;20.70;99.90
20045;DHT22;10183;47.808;9.476;2023-06-26T06:06:45;20.70;99.90
20045;DHT22;10183;47.808;9.476;2023-06-26T06:09:11;20.80;99.90
20045;DHT22;10183;47.808;9.476;2023-06-26T06:11:37;20.90;99.90
20045;DHT22;10183;47.808;9.476;2023-06-26T06:14:03;21.00;99.90
20045;DHT22;10183;47.808;9.476;2023-06-26T06:16:30;21.00;99.90
20045;DHT22;10183;47.808;9.476;2023-06-26T06:18:56;21.10;99.90
20045;DHT22;10183;47.808;9.476;2023-06-26T06:21:22;21.10;99.90
20045;DHT22;10183;47.808;9.476;2023-06-26T06:23:48;21.20;99.90
20045;DHT22;10183;47.808;9.476;2023-06-26T06:26:14;21.30;99.90
20045;DHT22;10183;47.808;9.476;2023-06-26T06:28:41;21.30;99.90
20045;DHT22;10183;47.808;9.476;2023-06-26T06:31:07;21.40;99.90
20045;DHT22;10183;47.808;9.476;2023-06-26T06:33:33;21.40;99.90
20045;DHT22;10183;47.808;9.476;2023-06-26T06:36:00;21.50;99.90
20045;DHT22;10183;47.808;9.476;2023-06-26T06:38:26;21.50;99.90
20045;DHT22;10183;47.808;9.476;2023-06-26T06:40:52;21.50;99.90
20045;DHT22;10183;47.808;9.476;2023-06-26T06:43:18;21.60;99.90
20045;DHT22;10183;47.808;9.476;2023-06-26T06:45:45;21.60;99.90
20045;DHT22;10183;47.808;9.476;2023-06-26T06:48:11;21.60;99.90
20045;DHT22;10183;47.808;9.476;2023-06-26T06:50:37;21.70;99.90
20045;DHT22;10183;47.808;9.476;2023-06-26T06:53:03;21.70;99.90
20045;DHT22;10183;47.808;9.476;2023-06-26T06:55:29;21.80;99.90
20045;DHT22;10183;47.808;9.476;2023-06-26T06:57:56;21.90;99.90
20045;DHT22;10183;47.808;9.476;2023-06-26T07:00:22;21.90;99.90
20045;DHT22;10183;47.808;9.476;2023-06-26T07:02:48;21.90;99.90
20045;DHT22;10183;47.808;9.476;2023-06-26T07:05:14;22.10;99.90
20045;DHT22;10183;47.808;9.476;2023-06-26T07:07:40;22.00;99.90
20045;DHT22;10183;47.808;9.476;2023-06-26T07:10:09;22.10;99.90
20045;DHT22;10183;47.808;9.476;2023-06-26T07:12:35;22.10;99.90
20045;DHT22;10183;47.808;9.476;2023-06-26T07:15:03;22.10;99.90
20045;DHT22;10183;47.808;9.476;2023-06-26T07:17:31;22.20;99.90
20045;DHT22;10183;47.808;9.476;2023-06-26T07:19:57;22.30;99.90
20045;DHT22;10183;47.808;9.476;2023-06-26T07:22:23;22.30;99.90
20045;DHT22;10183;47.808;9.476;2023-06-26T07:24:49;22.40;99.90
20045;DHT22;10183;47.808;9.476;2023-06-26T07:27:16;22.40;99.90
20045;DHT22;10183;47.808;9.476;2023-06-26T07:29:42;22.50;99.90
20045;DHT22;10183;47.808;9.476;2023-06-26T07:32:09;22.50;99.90
20045;DHT22;10183;47.808;9.476;2023-06-26T07:34:35;22.60;99.90
20045;DHT22;10183;47.808;9.476;2023-06-26T07:37:01;22.60;99.90
20045;DHT22;10183;47.808;9.476;2023-06-26T07:39:27;22.60;99.90
20045;DHT22;10183;47.808;9.476;2023-06-26T07:41:53;22.70;99.90
20045;DHT22;10183;47.808;9.476;2023-06-26T07:44:20;22.70;99.90
20045;DHT22;10183;47.808;9.476;2023-06-26T07:46:46;22.80;99.90
20045;DHT22;10183;47.808;9.476;2023-06-26T07:49:12;22.80;99.90
20045;DHT22;10183;47.808;9.476;2023-06-26T07:51:39;23.10;99.90
20045;DHT22;10183;47.808;9.476;2023-06-26T07:54:05;22.90;99.90
20045;DHT22;10183;47.808;9.476;2023-06-26T07:56:31;22.90;99.90
20045;DHT22;10183;47.808;9.476;2023-06-26T07:58:57;22.90;99.90
20045;DHT22;10183;47.808;9.476;2023-06-26T08:01:24;22.90;99.90
20045;DHT22;10183;47.808;9.476;2023-06-26T08:03:50;23.10;99.90
20045;DHT22;10183;47.808;9.476;2023-06-26T08:06:16;23.00;99.90
20045;DHT22;10183;47.808;9.476;2023-06-26T08:08:42;23.10;99.90
20045;DHT22;10183;47.808;9.476;2023-06-26T08:11:08;23.30;99.90
20045;DHT22;10183;47.808;9.476;2023-06-26T08:13:34;23.30;99.90
20045;DHT22;10183;47.808;9.476;2023-06-26T08:16:00;23.50;99.90
20045;DHT22;10183;47.808;9.476;2023-06-26T08:18:27;23.40;99.90
20045;DHT22;10183;47.808;9.476;2023-06-26T08:20:53;23.20;99.90
20045;DHT22;10183;47.808;9.476;2023-06-26T08:23:19;23.30;99.90
20045;DHT22;10183;47.808;9.476;2023-06-26T08:25:45;23.40;99.90
20045;DHT22;10183;47.808;9.476;2023-06-26T08:28:13;23.50;99.90
20045;DHT22;10183;47.808;9.476;2023-06-26T08:30:39;23.80;99.90
20045;DHT22;10183;47.808;9.476;2023-06-26T08:33:05;24.00;99.90
20045;DHT22;10183;47.808;9.476;2023-06-26T08:35:36;23.90;99.90
20045;DHT22;10183;47.808;9.476;2023-06-26T08:38:02;23.80;99.90
20045;DHT22;10183;47.808;9.476;2023-06-26T08:40:29;23.80;99.90
20045;DHT22;10183;47.808;9.476;2023-06-26T08:42:56;23.70;99.90
20045;DHT22;10183;47.808;9.476;2023-06-26T08:45:23;23.90;99.90
20045;DHT22;10183;47.808;9.476;2023-06-26T08:47:51;23.70;99.90
20045;DHT22;10183;47.808;9.476;2023-06-26T08:50:20;23.80;99.90
20045;DHT22;10183;47.808;9.476;2023-06-26T08:53:04;23.90;99.90
20045;DHT22;10183;47.808;9.476;2023-06-26T08:55:31;24.00;99.90
20045;DHT22;10183;47.808;9.476;2023-06-26T08:57:59;24.20;99.90
20045;DHT22;10183;47.808;9.476;2023-06-26T09:00:26;24.20;99.90
20045;DHT22;10183;47.808;9.476;2023-06-26T09:02:52;24.40;99.90
20045;DHT22;10183;47.808;9.476;2023-06-26T09:05:18;24.30;99.90
20045;DHT22;10183;47.808;9.476;2023-06-26T09:07:45;24.70;99.90
20045;DHT22;10183;47.808;9.476;2023-06-26T09:10:11;24.50;99.90
20045;DHT22;10183;47.808;9.476;2023-06-26T09:12:37;24.20;99.90
20045;DHT22;10183;47.808;9.476;2023-06-26T09:15:05;24.20;99.90
20045;DHT22;10183;47.808;9.476;2023-06-26T09:17:38;24.40;99.90
20045;DHT22;10183;47.808;9.476;2023-06-26T09:20:04;24.30;99.90
20045;DHT22;10183;47.808;9.476;2023-06-26T09:22:35;24.30;99.90
20045;DHT22;10183;47.808;9.476;2023-06-26T09:25:03;24.50;99.90
20045;DHT22;10183;47.808;9.476;2023-06-26T09:27:30;24.80;99.90
20045;DHT22;10183;47.808;9.476;2023-06-26T09:29:56;24.80;99.90
20045;DHT22;10183;47.808;9.476;2023-06-26T09:32:24;24.80;99.90
20045;DHT22;10183;47.808;9.476;2023-06-26T09:34:53;24.80;99.90
20045;DHT22;10183;47.808;9.476;2023-06-26T09:37:19;24.70;99.90
20045;DHT22;10183;47.808;9.476;2023-06-26T09:39:46;24.70;99.90
20045;DHT22;10183;47.808;9.476;2023-06-26T09:42:14;25.10;99.90
20045;DHT22;10183;47.808;9.476;2023-06-26T09:44:47;25.00;99.90
20045;DHT22;10183;47.808;9.476;2023-06-26T09:47:16;25.00;99.90
20045;DHT22;10183;47.808;9.476;2023-06-26T09:49:43;24.90;99.90
20045;DHT22;10183;47.808;9.476;2023-06-26T09:52:13;25.00;99.90
20045;DHT22;10183;47.808;9.476;2023-06-26T09:54:39;25.20;99.90
20045;DHT22;10183;47.808;9.476;2023-06-26T09:57:10;25.30;99.90
20045;DHT22;10183;47.808;9.476;2023-06-26T09:59:37;25.60;99.90
20045;DHT22;10183;47.808;9.476;2023-06-26T10:02:04;25.60;99.90
20045;DHT22;10183;47.808;9.476;2023-06-26T10:04:30;25.70;99.90
20045;DHT22;10183;47.808;9.476;2023-06-26T10:06:57;25.90;99.90
20045;DHT22;10183;47.808;9.476;2023-06-26T10:09:24;25.60;99.90
20045;DHT22;10183;47.808;9.476;2023-06-26T10:11:57;25.60;99.90
20045;DHT22;10183;47.808;9.476;2023-06-26T10:14:27;26.00;99.90
20045;DHT22;10183;47.808;9.476;2023-06-26T10:16:58;26.10;99.90
20045;DHT22;10183;47.808;9.476;2023-06-26T10:19:26;26.00;99.90
20045;DHT22;10183;47.808;9.476;2023-06-26T10:21:53;26.20;99.90
20045;DHT22;10183;47.808;9.476;2023-06-26T10:24:22;26.50;99.90
20045;DHT22;10183;47.808;9.476;2023-06-26T10:26:52;26.10;99.90
20045;DHT22;10183;47.808;9.476;2023-06-26T10:29:20;26.40;99.90
20045;DHT22;10183;47.808;9.476;2023-06-26T10:31:52;26.80;99.90
20045;DHT22;10183;47.808;9.476;2023-06-26T10:34:18;26.70;99.90
20045;DHT22;10183;47.808;9.476;2023-06-26T10:36:45;26.50;99.90
20045;DHT22;10183;47.808;9.476;2023-06-26T10:39:13;26.80;99.90
20045;DHT22;10183;47.808;9.476;2023-06-26T10:41:41;26.70;99.90
20045;DHT22;10183;47.808;9.476;2023-06-26T10:44:11;27.10;99.90
20045;DHT22;10183;47.808;9.476;2023-06-26T10:46:55;27.00;99.90
20045;DHT22;10183;47.808;9.476;2023-06-26T10:49:27;27.30;99.90
20045;DHT22;10183;47.808;9.476;2023-06-26T10:51:54;27.40;99.90
20045;DHT22;10183;47.808;9.476;2023-06-26T10:54:23;27.60;99.90
20045;DHT22;10183;47.808;9.476;2023-06-26T10:56:50;27.40;99.90
20045;DHT22;10183;47.808;9.476;2023-06-26T10:59:21;27.30;99.90
20045;DHT22;10183;47.808;9.476;2023-06-26T11:02:01;27.50;99.90
20045;DHT22;10183;47.808;9.476;2023-06-26T11:07:21;27.50;92.30
20045;DHT22;10183;47.808;9.476;2023-06-26T11:09:59;27.70;97.40
20045;DHT22;10183;47.808;9.476;2023-06-26T11:12:42;27.80;92.00
20045;DHT22;10183;47.808;9.476;2023-06-26T11:17:36;27.90;56.50
20045;DHT22;10183;47.808;9.476;2023-06-26T11:20:05;28.10;89.70
20045;DHT22;10183;47.808;9.476;2023-06-26T11:22:36;28.20;90.10
20045;DHT22;10183;47.808;9.476;2023-06-26T11:25:03;28.60;95.30
20045;DHT22;10183;47.808;9.476;2023-06-26T11:27:38;28.30;98.90
20045;DHT22;10183;47.808;9.476;2023-06-26T11:30:06;28.30;55.60
20045;DHT22;10183;47.808;9.476;2023-06-26T11:32:32;28.20;83.00
20045;DHT22;10183;47.808;9.476;2023-06-26T11:35:00;27.80;54.30
20045;DHT22;10183;47.808;9.476;2023-06-26T11:37:26;27.70;45.60
20045;DHT22;10183;47.808;9.476;2023-06-26T11:39:53;28.10;62.60
20045;DHT22;10183;47.808;9.476;2023-06-26T11:42:23;28.10;50.90
20045;DHT22;10183;47.808;9.476;2023-06-26T11:44:50;28.50;90.10
20045;DHT22;10183;47.808;9.476;2023-06-26T11:47:18;28.30;50.60
20045;DHT22;10183;47.808;9.476;2023-06-26T11:49:47;28.60;60.80
20045;DHT22;10183;47.808;9.476;2023-06-26T11:52:14;28.50;52.50
20045;DHT22;10183;47.808;9.476;2023-06-26T11:54:42;28.50;57.00
20045;DHT22;10183;47.808;9.476;2023-06-26T11:57:12;28.50;58.80
20045;DHT22;10183;47.808;9.476;2023-06-26T11:59:40;29.20;45.30
20045;DHT22;10183;47.808;9.476;2023-06-26T12:02:11;29.80;62.80
20045;DHT22;10183;47.808;9.476;2023-06-26T12:04:40;29.20;50.40
20045;DHT22;10183;47.808;9.476;2023-06-26T12:07:08;28.30;43.60
20045;DHT22;10183;47.808;9.476;2023-06-26T12:09:46;28.40;55.60
20045;DHT22;10183;47.808;9.476;2023-06-26T12:12:15;28.90;64.10
20045;DHT22;10183;47.808;9.476;2023-06-26T12:14:42;29.20;67.10
20045;DHT22;10183;47.808;9.476;2023-06-26T12:17:11;29.10;50.50
20045;DHT22;10183;47.808;9.476;2023-06-26T12:19:38;29.20;38.30
20045;DHT22;10183;47.808;9.476;2023-06-26T12:22:08;29.40;43.20
20045;DHT22;10183;47.808;9.476;2023-06-26T12:24:37;29.70;37.40
20045;DHT22;10183;47.808;9.476;2023-06-26T12:27:08;29.60;30.90
20045;DHT22;10183;47.808;9.476;2023-06-26T12:29:36;30.00;39.80
20045;DHT22;10183;47.808;9.476;2023-06-26T12:32:02;29.60;44.00
20045;DHT22;10183;47.808;9.476;2023-06-26T12:34:34;29.10;32.90
20045;DHT22;10183;47.808;9.476;2023-06-26T12:37:05;28.90;37.00
20045;DHT22;10183;47.808;9.476;2023-06-26T12:39:51;28.50;43.20
20045;DHT22;10183;47.808;9.476;2023-06-26T12:42:21;28.00;41.10
20045;DHT22;10183;47.808;9.476;2023-06-26T12:44:48;28.30;46.50
20045;DHT22;10183;47.808;9.476;2023-06-26T12:47:16;28.10;37.60
20045;DHT22;10183;47.808;9.476;2023-06-26T12:49:45;28.30;42.50
20045;DHT22;10183;47.808;9.476;2023-06-26T12:52:13;28.20;61.20
20045;DHT22;10183;47.808;9.476;2023-06-26T12:54:42;28.50;52.80
20045;DHT22;10183;47.808;9.476;2023-06-26T12:57:09;28.20;43.80
20045;DHT22;10183;47.808;9.476;2023-06-26T12:59:37;28.40;45.40
20045;DHT22;10183;47.808;9.476;2023-06-26T13:02:04;30.00;45.30
20045;DHT22;10183;47.808;9.476;2023-06-26T13:04:31;29.40;34.10
20045;DHT22;10183;47.808;9.476;2023-06-26T13:06:57;29.90;31.20
20045;DHT22;10183;47.808;9.476;2023-06-26T13:09:23;29.00;32.90
20045;DHT22;10183;47.808;9.476;2023-06-26T13:11:54;29.00;38.40
20045;DHT22;10183;47.808;9.476;2023-06-26T13:14:20;29.10;36.60
20045;DHT22;10183;47.808;9.476;2023-06-26T13:16:46;28.60;39.10
20045;DHT22;10183;47.808;9.476;2023-06-26T13:19:13;28.30;46.70
20045;DHT22;10183;47.808;9.476;2023-06-26T13:21:39;28.30;51.30
20045;DHT22;10183;47.808;9.476;2023-06-26T13:24:05;28.00;62.00
20045;DHT22;10183;47.808;9.476;2023-06-26T13:26:32;27.70;57.30
20045;DHT22;10183;47.808;9.476;2023-06-26T13:28:58;27.30;76.80
20045;DHT22;10183;47.808;9.476;2023-06-26T13:31:24;26.80;80.00
20045;DHT22;10183;47.808;9.476;2023-06-26T13:33:51;26.60;87.50
20045;DHT22;10183;47.808;9.476;2023-06-26T13:36:18;26.20;99.90
20045;DHT22;10183;47.808;9.476;2023-06-26T13:38:45;25.20;99.90
20045;DHT22;10183;47.808;9.476;2023-06-26T13:41:11;24.70;99.90
20045;DHT22;10183;47.808;9.476;2023-06-26T13:43:37;24.70;99.90
20045;DHT22;10183;47.808;9.476;2023-06-26T13:46:04;25.90;99.90
20045;DHT22;10183;47.808;9.476;2023-06-26T13:48:30;26.80;99.90
20045;DHT22;10183;47.808;9.476;2023-06-26T13:50:58;26.30;99.90
20045;DHT22;10183;47.808;9.476;2023-06-26T13:53:25;26.00;99.90
20045;DHT22;10183;47.808;9.476;2023-06-26T13:55:51;26.10;99.90
20045;DHT22;10183;47.808;9.476;2023-06-26T13:58:17;25.90;99.90
20045;DHT22;10183;47.808;9.476;2023-06-26T14:00:45;26.10;99.90
20045;DHT22;10183;47.808;9.476;2023-06-26T14:03:11;26.90;99.90
20045;DHT22;10183;47.808;9.476;2023-06-26T14:05:37;27.10;99.90
20045;DHT22;10183;47.808;9.476;2023-06-26T14:08:07;27.20;99.90
20045;DHT22;10183;47.808;9.476;2023-06-26T14:10:33;29.50;99.90
20045;DHT22;10183;47.808;9.476;2023-06-26T14:13:00;31.20;99.90
20045;DHT22;10183;47.808;9.476;2023-06-26T14:15:33;31.90;88.10
20045;DHT22;10183;47.808;9.476;2023-06-26T14:17:59;31.80;96.30
20045;DHT22;10183;47.808;9.476;2023-06-26T14:20:29;32.10;90.90
20045;DHT22;10183;47.808;9.476;2023-06-26T14:22:55;32.80;87.50
20045;DHT22;10183;47.808;9.476;2023-06-26T14:25:21;33.20;55.30
20045;DHT22;10183;47.808;9.476;2023-06-26T14:27:47;33.60;53.50
20045;DHT22;10183;47.808;9.476;2023-06-26T14:30:13;33.80;56.50
20045;DHT22;10183;47.808;9.476;2023-06-26T14:32:41;33.70;49.80
20045;DHT22;10183;47.808;9.476;2023-06-26T14:35:07;33.80;39.90
20045;DHT22;10183;47.808;9.476;2023-06-26T14:37:35;32.30;58.30
20045;DHT22;10183;47.808;9.476;2023-06-26T14:40:01;31.10;83.00
20045;DHT22;10183;47.808;9.476;2023-06-26T14:42:28;29.00;99.90
20045;DHT22;10183;47.808;9.476;2023-06-26T14:44:54;28.40;99.90
20045;DHT22;10183;47.808;9.476;2023-06-26T14:47:20;27.20;99.90
20045;DHT22;10183;47.808;9.476;2023-06-26T14:49:46;27.90;99.90
20045;DHT22;10183;47.808;9.476;2023-06-26T14:52:13;30.00;99.90
20045;DHT22;10183;47.808;9.476;2023-06-26T14:54:39;31.40;91.90
20045;DHT22;10183;47.808;9.476;2023-06-26T14:57:06;33.00;77.10
20045;DHT22;10183;47.808;9.476;2023-06-26T14:59:33;32.90;54.70
20045;DHT22;10183;47.808;9.476;2023-06-26T15:01:59;32.40;41.70
20045;DHT22;10183;47.808;9.476;2023-06-26T15:04:26;31.20;32.50
20045;DHT22;10183;47.808;9.476;2023-06-26T15:06:52;30.40;38.70
20045;DHT22;10183;47.808;9.476;2023-06-26T15:09:20;30.60;40.20
20045;DHT22;10183;47.808;9.476;2023-06-26T15:11:46;30.30;41.00
20045;DHT22;10183;47.808;9.476;2023-06-26T15:14:12;31.00;41.20
20045;DHT22;10183;47.808;9.476;2023-06-26T15:16:39;29.90;31.40
20045;DHT22;10183;47.808;9.476;2023-06-26T15:19:05;30.10;32.30
20045;DHT22;10183;47.808;9.476;2023-06-26T15:21:31;30.30;34.40
20045;DHT22;10183;47.808;9.476;2023-06-26T15:23:57;30.20;42.30
20045;DHT22;10183;47.808;9.476;2023-06-26T15:26:23;30.20;32.20
20045;DHT22;10183;47.808;9.476;2023-06-26T15:28:49;30.20;29.20
20045;DHT22;10183;47.808;9.476;2023-06-26T15:31:17;29.60;33.70
20045;DHT22;10183;47.808;9.476;2023-06-26T15:33:43;30.00;35.20
20045;DHT22;10183;47.808;9.476;2023-06-26T15:36:09;30.60;30.00
20045;DHT22;10183;47.808;9.476;2023-06-26T15:38:36;30.80;33.00
20045;DHT22;10183;47.808;9.476;2023-06-26T15:41:02;30.80;33.40
20045;DHT22;10183;47.808;9.476;2023-06-26T15:43:28;29.90;28.40